Time;durP1;ratioP1;P1;durP2;ratioP2;P2;SDS_P1;SDS_P2;PMS_P1;PMS_P2;Temp;Humidity;BMP_temperature;BMP_pressure;BME280_temperature;BME280_humidity;BME280_pressure;Samples;Min_cycle;Max_cycle;Signal;HPM_P1;HPM_P2
2022/07/22 00:01:01;;;;;;;;;;;;;;;21.15;61.11;101111.63;4953475;28;7284;-79
2022/07/22 00:03:26;;;;;;;;;;;;;;;21.16;61.12;101110.78;4926459;28;6979;-79
2022/07/22 00:05:52;;;;;;;;;;;;;;;21.13;60.98;101108.09;4943572;28;6952;-79
2022/07/22 00:08:17;;;;;;;;;;;;;;;21.13;61.50;101100.28;4944632;28;9885;-79
2022/07/22 00:10:43;;;;;;;;;;;;;;;21.12;61.18;101108.09;4931969;28;7183;-79
2022/07/22 00:13:09;;;;;;;;;;;;;;;21.13;61.46;101104.63;4947932;28;6947;-79
2022/07/22 00:15:34;;;;;;;;;;;;;;;21.09;61.25;101107.16;4931563;28;7112;-79
2022/07/22 00:18:00;;;;;;;;;;;;;;;21.10;61.13;101110.66;4931575;28;6772;-79
2022/07/22 00:20:26;;;;;;;;;;;;;;;21.11;61.48;101108.94;4955928;28;6768;-79
2022/07/22 00:22:51;;;;;;;;;;;;;;;21.09;61.65;101106.31;4929833;28;8575;-79
2022/07/22 00:25:17;;;;;;;;;;;;;;;21.09;61.43;101111.50;4943671;28;6807;-79
2022/07/22 00:27:42;;;;;;;;;;;;;;;21.07;61.44;101105.41;4917923;28;7101;-78
2022/07/22 00:30:08;;;;;;;;;;;;;;;21.07;60.95;101108.88;4941087;28;7017;-79
2022/07/22 00:32:34;;;;;;;;;;;;;;;21.07;61.25;101110.63;4942559;28;6932;-79
2022/07/22 00:35:00;;;;;;;;;;;;;;;21.06;60.86;101107.13;4929263;28;7215;-79
2022/07/22 00:37:25;;;;;;;;;;;;;;;21.11;60.98;101111.56;4929588;28;6780;-78
2022/07/22 00:39:51;;;;;;;;;;;;;;;21.12;60.95;101106.34;4944657;28;6788;-79
2022/07/22 00:42:17;;;;;;;;;;;;;;;21.12;61.02;101114.16;4957987;28;6772;-79
2022/07/22 00:44:43;;;;;;;;;;;;;;;21.12;60.97;101101.13;4956482;28;7250;-79
2022/07/22 00:47:09;;;;;;;;;;;;;;;21.12;60.77;101103.72;4957722;28;7211;-79
2022/07/22 00:49:34;;;;;;;;;;;;;;;21.11;60.68;101093.31;4932160;28;6826;-79
2022/07/22 00:52:00;;;;;;;;;;;;;;;21.11;60.64;101099.38;4941589;28;7218;-79
2022/07/22 00:54:25;;;;;;;;;;;;;;;21.09;60.59;101096.75;4950767;28;6792;-79
2022/07/22 00:56:51;;;;;;;;;;;;;;;21.09;60.91;101091.53;4940224;28;7267;-79
2022/07/22 00:59:17;;;;;;;;;;;;;;;21.07;61.23;101094.97;4925150;28;7016;-79
2022/07/22 01:01:42;;;;;;;;;;;;;;;21.06;60.61;101096.69;4937456;28;8043;-79
2022/07/22 01:04:08;;;;;;;;;;;;;;;21.07;60.78;101089.78;4956791;28;7245;-79
2022/07/22 01:06:33;;;;;;;;;;;;;;;21.06;60.94;101086.28;4932182;28;7181;-79
2022/07/22 01:08:59;;;;;;;;;;;;;;;21.06;61.01;101093.22;4942296;28;7246;-79
2022/07/22 01:11:25;;;;;;;;;;;;;;;21.05;60.73;101092.34;4926822;28;6995;-79
2022/07/22 01:13:53;;;;;;;;;;;;;;;21.03;60.73;101088.84;4939555;28;7264;-79
2022/07/22 01:16:19;;;;;;;;;;;;;;;21.01;60.62;101092.28;4924166;28;7421;-79
2022/07/22 01:18:46;;;;;;;;;;;;;;;20.98;60.80;101084.41;4938189;28;7041;-79
2022/07/22 01:21:13;;;;;;;;;;;;;;;20.99;61.13;101091.38;4941203;28;6822;-79
2022/07/22 01:23:40;;;;;;;;;;;;;;;20.98;61.46;101084.41;4945127;28;7194;-79
2022/07/22 01:26:06;;;;;;;;;;;;;;;21.01;60.74;101081.84;4945685;28;7294;-79
2022/07/22 01:28:32;;;;;;;;;;;;;;;21.00;61.21;101080.09;4940727;28;6965;-80
2022/07/22 01:30:57;;;;;;;;;;;;;;;21.00;61.30;101083.56;4944279;28;7111;-79
2022/07/22 01:33:23;;;;;;;;;;;;;;;20.98;61.09;101081.81;4940083;28;7219;-79
2022/07/22 01:35:49;;;;;;;;;;;;;;;20.95;60.98;101080.88;4924427;28;8530;-79
2022/07/22 01:38:15;;;;;;;;;;;;;;;20.97;60.94;101082.66;4922845;28;6948;-79
2022/07/22 01:40:42;;;;;;;;;;;;;;;20.97;61.34;101087.88;4955668;28;7214;-80
2022/07/22 01:43:07;;;;;;;;;;;;;;;20.95;61.33;101085.25;4940384;28;6931;-80
2022/07/22 01:45:34;;;;;;;;;;;;;;;20.96;61.23;101079.16;4910407;28;7106;-79
2022/07/22 01:48:00;;;;;;;;;;;;;;;20.95;61.46;101091.31;4951967;28;7146;-79
2022/07/22 01:50:25;;;;;;;;;;;;;;;20.92;61.17;101083.44;4929174;28;7040;-79
2022/07/22 01:52:51;;;;;;;;;;;;;;;20.93;61.09;101090.41;4954832;28;6764;-79
2022/07/22 01:55:17;;;;;;;;;;;;;;;20.93;60.96;101094.75;4952989;28;6836;-79
2022/07/22 01:57:43;;;;;;;;;;;;;;;20.93;61.06;101095.63;4955253;28;6991;-79
2022/07/22 02:00:09;;;;;;;;;;;;;;;20.93;61.59;101086.94;4955242;28;7117;-79
2022/07/22 02:02:35;;;;;;;;;;;;;;;20.93;60.98;101100.84;4929428;28;7294;-78
2022/07/22 02:05:02;;;;;;;;;;;;;;;20.92;61.03;101093.00;4945655;28;7468;-78
2022/07/22 02:07:28;;;;;;;;;;;;;;;20.91;60.74;101092.13;4952824;28;6982;-78
2022/07/22 02:09:53;;;;;;;;;;;;;;;20.92;60.74;101091.28;4939425;28;7154;-78
2022/07/22 02:12:19;;;;;;;;;;;;;;;20.90;60.72;101095.59;4915634;28;6948;-78
2022/07/22 02:14:46;;;;;;;;;;;;;;;20.91;61.02;101091.25;4939299;28;7337;-78
2022/07/22 02:17:12;;;;;;;;;;;;;;;20.90;60.84;101087.78;4909547;28;6989;-78
2022/07/22 02:19:38;;;;;;;;;;;;;;;20.88;61.23;101088.59;4933957;28;6974;-78
2022/07/22 02:22:04;;;;;;;;;;;;;;;20.87;60.81;101082.53;4954893;28;6936;-78
2022/07/22 02:24:29;;;;;;;;;;;;;;;20.87;61.17;101085.13;4910937;28;6968;-78
2022/07/22 02:26:55;;;;;;;;;;;;;;;20.85;61.23;101086.81;4940644;28;8223;-78
2022/07/22 02:29:20;;;;;;;;;;;;;;;20.84;61.15;101082.44;4922761;28;6955;-78
2022/07/22 02:31:46;;;;;;;;;;;;;;;20.84;61.11;101081.59;4914713;28;6912;-78
2022/07/22 02:34:11;;;;;;;;;;;;;;;20.85;61.44;101083.34;4946341;28;7350;-78
2022/07/22 02:36:37;;;;;;;;;;;;;;;20.82;61.29;101076.34;4939833;28;6772;-78
2022/07/22 02:39:03;;;;;;;;;;;;;;;20.84;60.60;101074.63;4951000;28;6853;-78
2022/07/22 02:41:28;;;;;;;;;;;;;;;20.86;60.85;101072.94;4944985;28;8189;-78
2022/07/22 02:43:54;;;;;;;;;;;;;;;20.87;61.19;101079.03;4926995;28;7090;-78
2022/07/22 02:46:24;;;;;;;;;;;;;;;20.86;61.32;101069.47;4957290;28;8728;-78
2022/07/22 02:48:50;;;;;;;;;;;;;;;20.86;60.48;101065.13;4914477;28;6969;-78
2022/07/22 02:51:16;;;;;;;;;;;;;;;20.87;60.95;101061.69;4914464;28;7349;-78
2022/07/22 02:53:41;;;;;;;;;;;;;;;20.85;61.43;101055.53;4944226;28;6772;-78
2022/07/22 02:56:08;;;;;;;;;;;;;;;20.84;61.30;101058.16;4955378;28;6992;-75
2022/07/22 02:58:33;;;;;;;;;;;;;;;20.81;60.85;101058.94;4936447;28;7057;-75
2022/07/22 03:00:58;;;;;;;;;;;;;;;20.78;61.16;101059.75;4925872;28;6760;-75
2022/07/22 03:03:25;;;;;;;;;;;;;;;20.78;61.46;101053.69;4936315;28;7294;-75
2022/07/22 03:05:51;;;;;;;;;;;;;;;20.79;61.03;101063.25;4913779;28;7107;-75
2022/07/22 03:08:17;;;;;;;;;;;;;;;20.81;61.24;101064.13;4940448;28;6959;-75
2022/07/22 03:10:43;;;;;;;;;;;;;;;20.81;61.07;101059.81;4928203;28;6796;-75
2022/07/22 03:13:08;;;;;;;;;;;;;;;20.80;61.04;101062.38;4936702;28;6847;-75
2022/07/22 03:15:34;;;;;;;;;;;;;;;20.79;61.23;101065.84;4943106;28;7249;-75
2022/07/22 03:18:00;;;;;;;;;;;;;;;20.77;61.07;101063.22;4923409;28;6817;-75
2022/07/22 03:20:25;;;;;;;;;;;;;;;20.76;61.41;101066.66;4956861;28;7129;-75
2022/07/22 03:22:51;;;;;;;;;;;;;;;20.76;61.81;101060.56;4924270;28;8109;-75
2022/07/22 03:25:17;;;;;;;;;;;;;;;20.75;61.07;101064.03;4944481;28;6968;-75
2022/07/22 03:27:42;;;;;;;;;;;;;;;20.74;61.43;101054.47;4934878;28;7275;-75
2022/07/22 03:30:08;;;;;;;;;;;;;;;20.74;61.38;101046.66;4920190;29;8163;-76
2022/07/22 03:32:34;;;;;;;;;;;;;;;20.72;61.43;101045.75;4938321;28;6993;-75
2022/07/22 03:34:59;;;;;;;;;;;;;;;20.73;61.14;101047.50;4952098;28;6925;-75
2022/07/22 03:37:25;;;;;;;;;;;;;;;20.72;60.99;101040.53;4921818;29;6768;-75
2022/07/22 03:39:50;;;;;;;;;;;;;;;20.72;61.65;101043.16;4949100;28;7906;-75
2022/07/22 03:42:16;;;;;;;;;;;;;;;20.73;61.16;101047.50;4952369;28;6957;-75
2022/07/22 03:44:41;;;;;;;;;;;;;;;20.71;60.77;101047.47;4941141;28;6761;-75
2022/07/22 03:47:07;;;;;;;;;;;;;;;20.68;61.68;101047.44;4923964;28;8578;-74
2022/07/22 03:49:32;;;;;;;;;;;;;;;20.66;61.36;101055.22;4942507;28;6937;-74
2022/07/22 03:51:58;;;;;;;;;;;;;;;20.63;61.72;101047.34;4938578;28;8041;-75
2022/07/22 03:54:23;;;;;;;;;;;;;;;20.62;61.46;101055.16;4924222;28;6840;-74
2022/07/22 03:56:49;;;;;;;;;;;;;;;20.62;61.42;101053.41;4940004;28;7124;-74
2022/07/22 03:59:16;;;;;;;;;;;;;;;20.64;61.11;101056.06;4950355;28;6792;-74
2022/07/22 04:01:41;;;;;;;;;;;;;;;20.63;61.45;101044.75;4918566;28;7256;-74
2022/07/22 04:04:07;;;;;;;;;;;;;;;20.64;61.56;101053.44;4940040;28;6828;-75
2022/07/22 04:06:33;;;;;;;;;;;;;;;20.65;61.79;101050.00;4937606;28;7101;-74
2022/07/22 04:08:58;;;;;;;;;;;;;;;20.66;61.40;101054.34;4911684;28;7186;-75
2022/07/22 04:11:24;;;;;;;;;;;;;;;20.70;61.43;101060.50;4925710;28;7199;-74
2022/07/22 04:13:49;;;;;;;;;;;;;;;20.70;61.00;101053.53;4942560;28;6985;-74
2022/07/22 04:16:15;;;;;;;;;;;;;;;20.71;61.39;101052.69;4923036;28;6829;-74
2022/07/22 04:18:41;;;;;;;;;;;;;;;20.73;61.44;101060.53;4930893;28;7159;-74
2022/07/22 04:21:06;;;;;;;;;;;;;;;20.74;60.84;101051.84;4943241;28;6776;-74
2022/07/22 04:23:32;;;;;;;;;;;;;;;20.75;61.30;101056.22;4928753;28;7248;-74
2022/07/22 04:25:58;;;;;;;;;;;;;;;20.75;60.97;101059.72;4931678;28;7028;-74
2022/07/22 04:28:24;;;;;;;;;;;;;;;20.79;60.59;101055.44;4918264;28;7049;-74
2022/07/22 04:30:49;;;;;;;;;;;;;;;20.80;61.42;101062.38;4944972;28;6944;-74
2022/07/22 04:33:15;;;;;;;;;;;;;;;20.83;60.54;101056.41;4958352;28;6925;-74
2022/07/22 04:35:40;;;;;;;;;;;;;;;20.84;61.01;101063.34;4947149;28;7069;-74
2022/07/22 04:38:06;;;;;;;;;;;;;;;20.85;60.94;101063.34;4928438;28;6959;-74
2022/07/22 04:40:31;;;;;;;;;;;;;;;20.82;61.02;101063.31;4925376;28;6768;-74
2022/07/22 04:42:57;;;;;;;;;;;;;;;20.81;60.31;101061.53;4940905;28;6978;-75
2022/07/22 04:45:22;;;;;;;;;;;;;;;20.80;60.32;101062.38;4939151;28;7164;-74
2022/07/22 04:47:48;;;;;;;;;;;;;;;20.80;60.40;101067.59;4941006;28;7238;-74
2022/07/22 04:50:13;;;;;;;;;;;;;;;20.82;60.55;101065.91;4955815;28;6918;-74
2022/07/22 04:52:39;;;;;;;;;;;;;;;20.83;60.67;101059.84;4951574;28;7527;-75
2022/07/22 04:55:05;;;;;;;;;;;;;;;20.81;60.80;101062.44;4959290;28;7211;-74
2022/07/22 04:57:31;;;;;;;;;;;;;;;20.78;60.11;101057.16;4926721;28;6958;-74
2022/07/22 04:59:56;;;;;;;;;;;;;;;20.76;60.39;101056.25;4937269;28;6772;-74
2022/07/22 05:02:22;;;;;;;;;;;;;;;20.78;60.79;101053.69;4913199;28;7371;-74
2022/07/22 05:04:47;;;;;;;;;;;;;;;20.78;60.56;101059.75;4938840;28;7774;-74
2022/07/22 05:07:13;;;;;;;;;;;;;;;20.80;60.69;101052.81;4943020;28;6827;-74
2022/07/22 05:09:38;;;;;;;;;;;;;;;20.85;60.57;101054.69;4928584;28;7069;-74
2022/07/22 05:12:04;;;;;;;;;;;;;;;20.86;60.37;101051.22;4946179;28;7055;-74
2022/07/22 05:14:30;;;;;;;;;;;;;;;20.87;60.51;101046.03;4953406;28;7174;-74
2022/07/22 05:16:56;;;;;;;;;;;;;;;20.89;60.70;101044.34;4927782;28;9325;-74
2022/07/22 05:19:21;;;;;;;;;;;;;;;20.92;60.67;101038.31;4925619;28;6975;-74
2022/07/22 05:21:47;;;;;;;;;;;;;;;20.95;60.65;101035.72;4954001;28;8444;-74
2022/07/22 05:24:13;;;;;;;;;;;;;;;20.97;60.21;101041.84;4954685;28;7111;-74
2022/07/22 05:26:38;;;;;;;;;;;;;;;21.01;60.47;101040.16;4924899;28;7194;-74
2022/07/22 05:29:04;;;;;;;;;;;;;;;21.04;60.28;101043.69;4926822;28;6756;-74
2022/07/22 05:31:29;;;;;;;;;;;;;;;21.07;60.55;101037.66;4957228;28;7228;-74
2022/07/22 05:33:55;;;;;;;;;;;;;;;21.12;60.24;101043.78;4944532;28;6913;-74
2022/07/22 05:36:21;;;;;;;;;;;;;;;21.15;60.00;101046.47;4930268;28;6768;-74
2022/07/22 05:38:46;;;;;;;;;;;;;;;21.18;60.32;101049.09;4959526;28;6796;-74
2022/07/22 05:41:12;;;;;;;;;;;;;;;21.22;59.96;101047.44;4929639;28;7018;-74
2022/07/22 05:43:37;;;;;;;;;;;;;;;21.25;59.76;101036.16;4946068;28;7037;-74
2022/07/22 05:46:03;;;;;;;;;;;;;;;21.26;59.87;101041.38;4940682;28;6985;-74
2022/07/22 05:48:28;;;;;;;;;;;;;;;21.27;59.56;101029.25;4946939;28;7191;-74
2022/07/22 05:50:54;;;;;;;;;;;;;;;21.28;59.70;101033.59;4954878;28;7255;-75
2022/07/22 05:53:19;;;;;;;;;;;;;;;21.28;60.00;101031.84;4943875;28;7261;-74
2022/07/22 05:55:45;;;;;;;;;;;;;;;21.32;59.68;101037.97;4928708;28;7187;-74
2022/07/22 05:58:10;;;;;;;;;;;;;;;21.38;60.03;101035.47;4953858;28;7073;-74
2022/07/22 06:00:36;;;;;;;;;;;;;;;21.47;59.98;101037.31;4953576;28;6921;-74
2022/07/22 06:03:01;;;;;;;;;;;;;;;21.57;59.65;101036.56;4931320;28;7154;-74
2022/07/22 06:05:27;;;;;;;;;;;;;;;21.69;59.65;101037.63;4927892;28;6780;-74
2022/07/22 06:07:52;;;;;;;;;;;;;;;21.76;59.35;101029.00;4931219;28;6772;-74
2022/07/22 06:10:18;;;;;;;;;;;;;;;21.82;59.30;101030.81;4925871;28;7257;-74
2022/07/22 06:12:43;;;;;;;;;;;;;;;21.88;59.12;101030.88;4954966;28;6917;-74
2022/07/22 06:15:09;;;;;;;;;;;;;;;21.93;59.02;101024.00;4929663;28;6864;-74
2022/07/22 06:17:34;;;;;;;;;;;;;;;21.98;58.24;101032.75;4915125;28;6967;-75
2022/07/22 06:20:00;;;;;;;;;;;;;;;22.04;58.14;101035.41;4957267;28;6772;-74
2022/07/22 06:22:25;;;;;;;;;;;;;;;22.05;57.82;101041.50;4925516;28;7101;-74
2022/07/22 06:24:51;;;;;;;;;;;;;;;22.04;57.88;101040.66;4943546;28;8210;-74
2022/07/22 06:27:17;;;;;;;;;;;;;;;22.05;57.93;101037.16;4940567;28;7185;-74
2022/07/22 06:29:42;;;;;;;;;;;;;;;22.11;57.52;101043.28;4938203;28;6768;-74
2022/07/22 06:32:08;;;;;;;;;;;;;;;22.14;57.70;101040.75;4929132;28;6942;-74
2022/07/22 06:34:33;;;;;;;;;;;;;;;22.15;57.29;101045.09;4928236;28;6768;-74
2022/07/22 06:36:59;;;;;;;;;;;;;;;22.17;57.30;101051.19;4940185;28;6886;-74
2022/07/22 06:39:25;;;;;;;;;;;;;;;22.23;57.40;101042.56;4956073;28;7108;-74
2022/07/22 06:41:50;;;;;;;;;;;;;;;22.31;57.47;101040.91;4927558;28;6969;-75
2022/07/22 06:44:16;;;;;;;;;;;;;;;22.40;57.16;101042.72;4938491;28;7138;-74
2022/07/22 06:46:41;;;;;;;;;;;;;;;22.51;56.85;101043.75;4955747;28;7060;-74
2022/07/22 06:49:07;;;;;;;;;;;;;;;22.64;56.54;101039.47;4927805;28;7047;-74
2022/07/22 06:51:33;;;;;;;;;;;;;;;22.69;56.45;101036.88;4937473;28;8074;-74
2022/07/22 06:53:59;;;;;;;;;;;;;;;22.77;56.41;101039.59;4926875;29;6789;-74
2022/07/22 06:56:24;;;;;;;;;;;;;;;22.84;56.43;101042.25;4924555;28;6921;-74
2022/07/22 06:58:50;;;;;;;;;;;;;;;22.92;56.02;101033.59;4937546;28;6772;-74
2022/07/22 07:01:15;;;;;;;;;;;;;;;23.05;56.59;101042.41;4953828;28;7406;-74
2022/07/22 07:03:41;;;;;;;;;;;;;;;23.21;55.85;101027.66;4941112;28;6944;-74
2022/07/22 07:06:11;;;;;;;;;;;;;;;23.34;55.64;101021.66;4934166;28;10105;-75
2022/07/22 07:08:39;;;;;;;;;;;;;;;23.43;55.11;101021.69;4938517;28;7045;-74
2022/07/22 07:11:05;;;;;;;;;;;;;;;23.52;55.06;101012.16;4924237;28;7000;-74
2022/07/22 07:13:31;;;;;;;;;;;;;;;23.60;55.13;101013.06;4930094;28;6956;-74
2022/07/22 07:15:57;;;;;;;;;;;;;;;23.68;54.70;101006.13;4945464;28;7036;-74
2022/07/22 07:18:22;;;;;;;;;;;;;;;23.76;54.05;101013.09;4954543;28;6851;-74
2022/07/22 07:20:48;;;;;;;;;;;;;;;23.79;54.24;101011.34;4952852;28;6958;-74
2022/07/22 07:23:13;;;;;;;;;;;;;;;23.82;53.51;101014.00;4958271;28;7395;-74
2022/07/22 07:25:39;;;;;;;;;;;;;;;23.78;53.50;101011.38;4931361;28;6768;-74
2022/07/22 07:28:05;;;;;;;;;;;;;;;23.73;53.43;101008.75;4918367;28;7018;-74
2022/07/22 07:30:30;;;;;;;;;;;;;;;23.69;53.18;101010.47;4929153;28;6997;-75
2022/07/22 07:32:56;;;;;;;;;;;;;;;23.62;53.27;101007.84;4947601;28;6756;-74
2022/07/22 07:35:21;;;;;;;;;;;;;;;23.53;53.55;101009.56;4932243;28;7932;-74
2022/07/22 07:37:47;;;;;;;;;;;;;;;23.42;53.95;101006.03;4929808;28;7183;-74
2022/07/22 07:40:13;;;;;;;;;;;;;;;23.35;54.15;101007.72;4956804;28;6764;-74
2022/07/22 07:42:38;;;;;;;;;;;;;;;23.30;54.62;101005.06;4956191;28;6740;-74
2022/07/22 07:45:04;;;;;;;;;;;;;;;23.28;54.50;101004.19;4957026;28;7940;-74
2022/07/22 07:47:29;;;;;;;;;;;;;;;23.33;54.40;101005.97;4951855;28;6768;-74
2022/07/22 07:49:57;;;;;;;;;;;;;;;23.35;54.80;101007.72;4943190;28;6863;-74
2022/07/22 07:52:22;;;;;;;;;;;;;;;23.39;54.44;101004.25;4940477;28;6789;-75
2022/07/22 07:54:48;;;;;;;;;;;;;;;23.45;54.04;101013.88;4915502;28;6943;-73
2022/07/22 07:57:13;;;;;;;;;;;;;;;23.48;54.16;101013.03;4956071;28;6759;-74
2022/07/22 07:59:40;;;;;;;;;;;;;;;23.52;54.10;101015.66;4928480;28;7975;-75
2022/07/22 08:02:07;;;;;;;;;;;;;;;23.61;53.60;101012.19;4927328;28;7167;-74
2022/07/22 08:04:32;;;;;;;;;;;;;;;23.70;53.51;101020.06;4933711;28;6768;-75
2022/07/22 08:06:58;;;;;;;;;;;;;;;23.80;53.46;101017.47;4925495;28;6943;-75
2022/07/22 08:09:23;;;;;;;;;;;;;;;23.86;53.01;101022.75;4961497;28;7178;-75
2022/07/22 08:11:49;;;;;;;;;;;;;;;23.91;52.71;101023.63;4928307;28;7185;-74
2022/07/22 08:14:15;;;;;;;;;;;;;;;23.96;52.93;101024.50;4931422;28;6933;-75
2022/07/22 08:16:40;;;;;;;;;;;;;;;24.04;52.48;101021.00;4929135;28;7315;-74
2022/07/22 08:19:06;;;;;;;;;;;;;;;24.12;52.30;101021.94;4926297;28;6783;-74
2022/07/22 08:21:32;;;;;;;;;;;;;;;24.19;52.12;101028.94;4924875;28;6772;-74
2022/07/22 08:23:58;;;;;;;;;;;;;;;24.28;51.72;101025.44;4945112;28;6860;-74
2022/07/22 08:26:23;;;;;;;;;;;;;;;24.33;51.51;101018.47;4958009;28;7217;-74
2022/07/22 08:28:49;;;;;;;;;;;;;;;24.40;51.42;101016.72;4930170;28;6973;-74
2022/07/22 08:31:14;;;;;;;;;;;;;;;24.40;51.05;101012.38;4911128;28;7008;-74
2022/07/22 08:33:40;;;;;;;;;;;;;;;24.40;51.23;101009.75;4932766;28;6809;-74
2022/07/22 08:36:05;;;;;;;;;;;;;;;24.37;50.59;101006.25;4960097;28;6985;-74
2022/07/22 08:38:31;;;;;;;;;;;;;;;24.36;50.98;101004.50;4943825;28;7163;-74
2022/07/22 08:40:57;;;;;;;;;;;;;;;24.39;50.60;101004.50;4942643;28;7122;-75
2022/07/22 08:43:24;;;;;;;;;;;;;;;24.40;50.52;100999.28;4927047;28;6959;-74
2022/07/22 08:45:49;;;;;;;;;;;;;;;24.46;50.90;101006.25;4929687;28;8036;-75
2022/07/22 08:48:15;;;;;;;;;;;;;;;24.58;50.43;101007.13;4942381;28;6788;-74
2022/07/22 08:50:41;;;;;;;;;;;;;;;24.65;50.57;101001.00;4957282;28;7179;-75
2022/07/22 08:53:14;;;;;;;;;;;;;;;24.73;50.19;101003.63;4931881;28;7029;-75
2022/07/22 08:55:42;;;;;;;;;;;;;;;24.79;50.13;101004.50;4944430;28;7130;-74
2022/07/22 08:58:07;;;;;;;;;;;;;;;24.90;49.98;101001.88;4936238;28;7033;-74
2022/07/22 09:00:33;;;;;;;;;;;;;;;25.01;49.54;100999.22;4942227;28;6768;-75
2022/07/22 09:02:58;;;;;;;;;;;;;;;25.10;49.32;101001.81;4930586;28;6768;-75
2022/07/22 09:05:33;;;;;;;;;;;;;;;25.17;48.90;100994.81;4927467;28;6985;-74
2022/07/22 09:07:59;;;;;;;;;;;;;;;25.27;48.75;100993.03;4957713;28;7240;-75
2022/07/22 09:10:30;;;;;;;;;;;;;;;25.50;49.30;100994.72;4915334;28;7126;-75
2022/07/22 09:12:59;;;;;;;;;;;;;;;25.78;48.77;100994.56;4912879;28;6967;-75
2022/07/22 09:15:30;;;;;;;;;;;;;;;26.09;48.62;101004.00;4957643;28;6923;-74
2022/07/22 09:17:57;;;;;;;;;;;;;;;26.32;47.35;101003.84;4953846;28;8198;-74
2022/07/22 09:20:23;;;;;;;;;;;;;;;26.47;46.70;101009.00;4932282;28;7227;-74
2022/07/22 09:22:51;;;;;;;;;;;;;;;26.57;45.98;101001.03;4943612;28;6780;-74
2022/07/22 09:25:26;;;;;;;;;;;;;;;26.67;45.51;100997.44;4934194;28;8254;-74
2022/07/22 09:27:54;;;;;;;;;;;;;;;26.68;44.94;100991.28;4938770;28;6969;-75
2022/07/22 09:30:23;;;;;;;;;;;;;;;26.62;44.48;100996.59;4953860;28;7282;-75
2022/07/22 09:32:49;;;;;;;;;;;;;;;26.44;44.12;100993.22;4926914;28;6961;-75
2022/07/22 09:35:15;;;;;;;;;;;;;;;26.30;44.73;101000.38;4928636;28;6971;-73
2022/07/22 09:38:01;;;;;;;;;;;;;;;26.16;44.71;100998.69;4956897;28;6911;-75
2022/07/22 09:40:35;;;;;;;;;;;;;;;26.13;44.19;100998.72;4953529;28;7258;-75
2022/07/22 09:43:03;;;;;;;;;;;;;;;26.13;44.67;100985.56;4950893;28;7262;-75
2022/07/22 09:45:31;;;;;;;;;;;;;;;26.27;45.30;100989.88;4938441;28;6980;-74
2022/07/22 09:47:58;;;;;;;;;;;;;;;26.41;44.77;100985.38;4922661;28;6796;-74
2022/07/22 09:50:29;;;;;;;;;;;;;;;26.57;44.87;100983.47;4955370;28;7203;-74
2022/07/22 09:52:57;;;;;;;;;;;;;;;26.74;44.23;100982.47;4929222;28;6800;-74
2022/07/22 09:55:23;;;;;;;;;;;;;;;26.92;44.38;100968.25;4928152;28;6956;-74
2022/07/22 09:57:51;;;;;;;;;;;;;;;27.19;44.13;100966.19;4940152;28;6784;-74
2022/07/22 10:00:20;;;;;;;;;;;;;;;27.48;43.73;100962.31;4938091;28;7258;-74
2022/07/22 10:02:46;;;;;;;;;;;;;;;27.73;42.69;100959.38;4927381;28;6843;-74
2022/07/22 10:05:14;;;;;;;;;;;;;;;27.93;42.83;100961.69;4937813;28;7003;-74
2022/07/22 10:07:44;;;;;;;;;;;;;;;28.25;42.25;100951.56;4955514;28;10507;-76
2022/07/22 10:10:13;;;;;;;;;;;;;;;29.01;41.78;100944.03;4941423;28;7146;-74
2022/07/22 10:12:39;;;;;;;;;;;;;;;29.82;40.01;100942.28;4938500;28;7262;-75
2022/07/22 10:15:08;;;;;;;;;;;;;;;30.38;38.79;100941.81;4914480;28;7017;-75
2022/07/22 10:17:36;;;;;;;;;;;;;;;30.81;38.45;100934.50;4929062;28;7293;-76
2022/07/22 10:20:03;;;;;;;;;;;;;;;31.34;37.48;100934.75;4939642;28;7154;-75
2022/07/22 10:22:44;;;;;;;;;;;;;;;31.93;37.13;100928.47;4955401;28;7217;-75
2022/07/22 10:25:12;;;;;;;;;;;;;;;32.42;35.86;100925.09;4941923;28;7074;-75
2022/07/22 10:28:03;;;;;;;;;;;;;;;32.49;34.79;100934.56;4940769;28;6913;-75
2022/07/22 10:30:31;;;;;;;;;;;;;;;32.20;34.88;100939.06;4952324;28;6929;-76
2022/07/22 10:33:09;;;;;;;;;;;;;;;31.76;34.58;100936.09;4925061;28;7206;-75
2022/07/22 10:35:38;;;;;;;;;;;;;;;31.25;34.38;100943.84;4940891;28;7448;-75
2022/07/22 10:38:06;;;;;;;;;;;;;;;30.86;34.89;100942.31;4926908;28;6962;-75
2022/07/22 10:40:47;;;;;;;;;;;;;;;30.57;35.38;100931.59;4952895;28;6801;-75
2022/07/22 10:43:15;;;;;;;;;;;;;;;30.29;35.95;100936.75;4955006;28;7295;-74
2022/07/22 10:45:46;;;;;;;;;;;;;;;29.97;36.01;100944.56;4927603;28;7068;-75
2022/07/22 10:48:25;;;;;;;;;;;;;;;29.63;35.61;100943.59;4942998;28;6952;-75
2022/07/22 10:50:54;;;;;;;;;;;;;;;29.46;36.71;100936.06;4953276;28;7307;-75
2022/07/22 10:53:26;;;;;;;;;;;;;;;29.47;37.11;100940.44;4942868;28;6832;-75
2022/07/22 10:55:58;;;;;;;;;;;;;;;29.62;36.56;100940.97;4929336;28;7282;-74
2022/07/22 10:58:32;;;;;;;;;;;;;;;30.06;35.72;100938.19;4940533;28;7118;-75
2022/07/22 11:01:04;;;;;;;;;;;;;;;30.57;35.39;100928.09;4937625;28;7193;-75
2022/07/22 11:03:31;;;;;;;;;;;;;;;30.96;35.53;100922.59;4932304;28;7365;-75
2022/07/22 11:05:59;;;;;;;;;;;;;;;31.50;34.99;100927.22;4943188;28;6957;-75
2022/07/22 11:08:25;;;;;;;;;;;;;;;32.04;34.09;100933.44;4921320;29;6959;-75
2022/07/22 11:10:51;;;;;;;;;;;;;;;32.48;32.78;100926.66;4944797;28;7002;-75
2022/07/22 11:13:33;;;;;;;;;;;;;;;32.68;32.61;100915.31;4947883;28;7812;-75
2022/07/22 11:16:14;;;;;;;;;;;;;;;32.90;32.50;100914.50;4933754;28;7135;-75
2022/07/22 11:18:52;;;;;;;;;;;;;;;33.31;31.88;100911.22;4940897;28;7226;-75
2022/07/22 11:21:19;;;;;;;;;;;;;;;33.93;32.33;100906.06;4924131;29;6988;-75
2022/07/22 11:23:48;;;;;;;;;;;;;;;34.58;31.16;100905.09;4936573;28;6972;-75
2022/07/22 11:26:16;;;;;;;;;;;;;;;35.25;30.48;100904.69;4929233;28;7054;-75
2022/07/22 11:28:43;;;;;;;;;;;;;;;35.67;30.14;100894.69;4952772;28;7049;-75
2022/07/22 11:31:13;;;;;;;;;;;;;;;35.63;29.49;100888.66;4939327;28;6973;-76
2022/07/22 11:33:38;;;;;;;;;;;;;;;35.01;29.16;100891.56;4957400;28;8195;-76
2022/07/22 11:36:05;;;;;;;;;;;;;;;34.44;29.62;100897.72;4925353;29;6796;-76
2022/07/22 11:38:50;;;;;;;;;;;;;;;33.91;29.65;100890.19;4930540;28;6971;-76
2022/07/22 11:41:17;;;;;;;;;;;;;;;33.25;30.52;100894.59;4925382;28;6968;-76
2022/07/22 11:43:46;;;;;;;;;;;;;;;32.57;30.59;100894.47;4924105;28;6882;-76
2022/07/22 11:46:13;;;;;;;;;;;;;;;32.15;31.40;100887.97;4925064;28;7425;-75
2022/07/22 11:48:40;;;;;;;;;;;;;;;31.91;31.74;100895.00;4943468;28;7491;-75
2022/07/22 11:51:06;;;;;;;;;;;;;;;31.77;32.17;100888.34;4954609;28;6957;-75
2022/07/22 11:53:32;;;;;;;;;;;;;;;31.68;32.56;100884.25;4926800;28;6857;-76
2022/07/22 11:56:00;;;;;;;;;;;;;;;31.69;33.16;100880.66;4925419;28;7047;-75
2022/07/22 11:58:47;;;;;;;;;;;;;;;31.95;33.03;100873.63;4910825;28;7736;-75
2022/07/22 12:01:16;;;;;;;;;;;;;;;32.34;33.29;100876.72;4942578;28;7601;-75
2022/07/22 12:03:46;;;;;;;;;;;;;;;32.65;31.68;100871.19;4930333;28;6810;-75
2022/07/22 12:06:13;;;;;;;;;;;;;;;32.64;31.83;100863.28;4929117;28;6863;-75
2022/07/22 12:08:42;;;;;;;;;;;;;;;32.47;31.62;100867.44;4928786;28;7047;-75
2022/07/22 12:11:10;;;;;;;;;;;;;;;32.28;31.98;100862.78;4914720;28;7240;-75
2022/07/22 12:13:35;;;;;;;;;;;;;;;32.21;31.60;100855.97;4932877;28;7343;-75
2022/07/22 12:16:16;;;;;;;;;;;;;;;32.16;32.18;100857.03;4916760;28;7264;-75
2022/07/22 12:18:42;;;;;;;;;;;;;;;32.21;31.92;100863.03;4950853;28;8244;-75
2022/07/22 12:21:07;;;;;;;;;;;;;;;32.28;32.06;100856.59;4925341;28;6981;-76
2022/07/22 12:23:33;;;;;;;;;;;;;;;32.46;31.57;100851.59;4957382;28;7076;-75
2022/07/22 12:26:01;;;;;;;;;;;;;;;32.48;31.21;100852.38;4958208;28;7933;-74
2022/07/22 12:28:27;;;;;;;;;;;;;;;32.37;31.91;100852.81;4933018;28;7260;-75
2022/07/22 12:30:55;;;;;;;;;;;;;;;32.36;31.89;100848.38;4960575;28;6812;-75
2022/07/22 12:33:22;;;;;;;;;;;;;;;32.34;31.34;100844.91;4957995;28;6844;-75
2022/07/22 12:36:04;;;;;;;;;;;;;;;32.31;31.46;100839.72;4957021;28;8242;-75
2022/07/22 12:38:30;;;;;;;;;;;;;;;32.27;31.81;100841.63;4944849;28;7432;-75
2022/07/22 12:40:55;;;;;;;;;;;;;;;32.17;31.60;100851.69;4951995;28;6971;-74
2022/07/22 12:43:26;;;;;;;;;;;;;;;32.12;31.81;100835.97;4958670;28;7458;-75
2022/07/22 12:45:52;;;;;;;;;;;;;;;32.23;31.86;100832.06;4941279;28;8018;-75